createdAt,value
2017-06-01T00:00:13.623Z,54.03
2017-06-01T00:02:15.102Z,53.74
2017-06-01T00:04:16.653Z,54.12
2017-06-01T00:06:18.628Z,54.03
2017-06-01T00:08:20.230Z,54.50
2017-06-01T00:10:21.596Z,54.60
2017-06-01T00:12:23.090Z,54.57
2017-06-01T00:14:24.537Z,54.67
2017-06-01T00:16:26.128Z,55.24
2017-06-01T00:18:28.105Z,55.24
2017-06-01T00:20:29.809Z,55.34
2017-06-01T00:22:31.734Z,55.63
2017-06-01T00:24:33.717Z,55.44
2017-06-01T00:26:35.202Z,55.34
2017-06-01T00:28:36.673Z,55.63
2017-06-01T00:30:38.683Z,55.44
2017-06-01T00:32:40.154Z,55.53
2017-06-01T00:34:42.096Z,55.91
2017-06-01T00:36:44.153Z,55.73
2017-06-01T00:38:46.104Z,56.01
2017-06-01T00:40:48.050Z,56.10
2017-06-01T00:42:49.550Z,55.53
2017-06-01T00:44:51.205Z,55.51
2017-06-01T00:46:52.653Z,55.88
2017-06-01T00:48:54.086Z,56.46
2017-06-01T00:50:55.625Z,56.37
2017-06-01T00:52:57.551Z,57.13
2017-06-01T00:55:00.114Z,56.46
2017-06-01T00:57:01.594Z,57.23
2017-06-01T00:59:03.000Z,57.32
2017-06-01T01:01:04.551Z,56.84
2017-06-01T01:03:06.013Z,57.32
2017-06-01T01:05:08.011Z,57.42
2017-06-01T01:07:09.484Z,58.28
2017-06-01T01:09:11.423Z,57.51
2017-06-01T01:11:13.473Z,57.70
2017-06-01T01:13:15.431Z,58.25
2017-06-01T01:15:17.222Z,58.34
2017-06-01T01:17:18.681Z,57.87
2017-06-01T01:19:20.539Z,58.34
2017-06-01T01:21:22.484Z,58.44
2017-06-01T01:23:24.482Z,58.63
2017-06-01T01:25:25.997Z,58.15
2017-06-01T01:27:27.523Z,58.25
2017-06-01T01:29:28.980Z,58.73
2017-06-01T01:31:30.464Z,58.63
2017-06-01T01:33:31.929Z,58.92
2017-06-01T01:35:33.786Z,59.11
2017-06-01T01:37:35.310Z,59.20
2017-06-01T01:39:36.773Z,59.40
2017-06-01T01:41:38.687Z,59.30
2017-06-01T01:43:40.127Z,59.11
2017-06-01T01:45:41.859Z,59.40
2017-06-01T01:47:43.764Z,59.59
2017-06-01T01:49:45.768Z,59.20
2017-06-01T01:51:47.710Z,59.69
2017-06-01T01:53:49.601Z,59.66
2017-06-01T01:55:50.996Z,59.78
2017-06-01T01:57:52.417Z,59.08
2017-06-01T01:59:54.021Z,59.66
2017-06-01T02:01:55.434Z,60.04
2017-06-01T02:03:56.931Z,60.13
2017-06-01T02:05:58.822Z,60.04
2017-06-01T02:08:00.283Z,60.33
2017-06-01T02:10:01.746Z,60.23
2017-06-01T02:12:03.295Z,60.04
2017-06-01T02:14:04.795Z,60.33
2017-06-01T02:16:06.233Z,60.61
2017-06-01T02:18:07.802Z,60.71
2017-06-01T02:20:09.228Z,60.52
2017-06-01T02:22:10.983Z,60.42
2017-06-01T02:24:12.501Z,60.61
2017-06-01T02:26:13.958Z,60.71
2017-06-01T02:28:15.382Z,60.71
2017-06-01T02:30:16.813Z,60.80
2017-06-01T02:32:18.231Z,61.28
2017-06-01T02:34:19.683Z,61.19
2017-06-01T02:36:21.449Z,60.52
2017-06-01T02:38:22.891Z,60.87
2017-06-01T02:40:24.821Z,60.68
2017-06-01T02:42:26.774Z,61.06
2017-06-01T02:44:28.280Z,61.54
2017-06-01T02:46:29.746Z,61.44
2017-06-01T02:48:31.337Z,61.82
2017-06-01T02:50:32.906Z,61.35
2017-06-01T02:52:34.349Z,61.06
2017-06-01T02:54:35.798Z,61.16
2017-06-01T02:56:37.302Z,61.82
2017-06-01T02:58:39.210Z,61.63
2017-06-01T03:00:41.231Z,61.82
2017-06-01T03:02:42.773Z,62.01
2017-06-01T03:04:44.283Z,62.49
2017-06-01T03:06:46.097Z,62.40
2017-06-01T03:08:47.576Z,62.30
2017-06-01T03:10:49.072Z,62.21
2017-06-01T03:12:50.637Z,62.68
2017-06-01T03:14:52.241Z,62.87
2017-06-01T03:16:54.130Z,62.84
2017-06-01T03:18:55.590Z,62.97
2017-06-01T03:20:57.052Z,62.87
2017-06-01T03:22:58.883Z,63.07
2017-06-01T03:25:00.855Z,62.87
2017-06-01T03:27:02.696Z,62.84
2017-06-01T03:29:04.176Z,63.03
2017-06-01T03:31:05.611Z,63.45
2017-06-01T03:33:07.065Z,63.23
2017-06-01T03:35:08.521Z,62.84
2017-06-01T03:37:09.945Z,62.84
2017-06-01T03:39:11.548Z,63.13
2017-06-01T03:41:13.006Z,63.13
2017-06-01T03:43:14.941Z,63.42
2017-06-01T03:45:16.428Z,63.42
2017-06-01T03:47:18.361Z,63.60
2017-06-01T03:49:19.818Z,63.51
2017-06-01T03:51:21.295Z,63.70
2017-06-01T03:53:23.071Z,63.32
2017-06-01T03:55:25.008Z,63.70
2017-06-01T03:57:26.517Z,63.89
2017-06-01T03:59:27.996Z,63.70
2017-06-01T04:01:29.473Z,63.70
2017-06-01T04:03:30.941Z,63.80
2017-06-01T04:05:32.388Z,63.89
2017-06-01T04:07:34.287Z,63.99
2017-06-01T04:09:35.786Z,64.56
2017-06-01T04:11:37.234Z,64.56
2017-06-01T04:13:38.785Z,64.75
2017-06-01T04:15:40.727Z,64.56
2017-06-01T04:17:42.758Z,64.56
2017-06-01T04:19:44.262Z,63.89
2017-06-01T04:21:45.825Z,64.37
2017-06-01T04:23:47.282Z,64.85
2017-06-01T04:25:48.818Z,64.28
2017-06-01T04:27:50.408Z,64.56
2017-06-01T04:29:51.844Z,64.85
2017-06-01T04:31:53.415Z,65.14
2017-06-01T04:33:54.988Z,64.94
2017-06-01T04:35:56.447Z,64.94
2017-06-01T04:37:58.006Z,64.65
2017-06-01T04:39:59.932Z,64.59
2017-06-01T04:42:01.430Z,64.94
2017-06-01T04:44:03.004Z,65.64
2017-06-01T04:46:04.601Z,65.64
2017-06-01T04:48:06.061Z,65.55
2017-06-01T04:50:07.526Z,65.64
2017-06-01T04:52:08.990Z,65.55
2017-06-01T04:54:10.442Z,65.74
2017-06-01T04:56:12.082Z,65.64
2017-06-01T04:58:13.534Z,65.84
2017-06-01T05:00:15.013Z,64.98
2017-06-01T05:02:16.477Z,65.55
2017-06-01T05:04:18.053Z,66.13
2017-06-01T05:06:19.955Z,66.31
2017-06-01T05:08:21.457Z,65.64
2017-06-01T05:10:23.067Z,66.35
2017-06-01T05:12:24.777Z,64.82
2017-06-01T05:14:26.816Z,64.53
2017-06-01T05:16:28.827Z,65.58
2017-06-01T05:18:30.905Z,65.77
2017-06-01T05:20:32.902Z,64.72
2017-06-01T05:22:34.385Z,65.01
2017-06-01T05:24:35.960Z,64.53
2017-06-01T05:26:37.924Z,64.34
2017-06-01T05:28:39.413Z,64.47
2017-06-01T05:30:40.895Z,64.28
2017-06-01T05:32:42.426Z,63.80
2017-06-01T05:34:43.904Z,64.47
2017-06-01T05:36:45.488Z,63.45
2017-06-01T05:38:47.010Z,62.62
2017-06-01T05:40:48.501Z,60.16
2017-06-01T05:42:50.490Z,58.37
2017-06-01T05:44:52.375Z,56.02
2017-06-01T05:46:54.548Z,51.50
2017-06-01T05:48:56.544Z,49.02
2017-06-01T05:50:58.027Z,48.83
2017-06-01T05:52:59.608Z,48.07
2017-06-01T05:55:01.125Z,48.25
2017-06-01T05:57:02.621Z,47.63
2017-06-01T05:59:04.108Z,44.98
2017-06-01T06:01:05.677Z,41.28
2017-06-01T06:03:07.180Z,37.88
2017-06-01T06:05:08.705Z,34.19
2017-06-01T06:07:10.336Z,31.99
2017-06-01T06:09:12.601Z,29.51
2017-06-01T06:11:14.421Z,27.98
2017-06-01T06:13:16.292Z,26.26
2017-06-01T06:15:17.828Z,25.10
2017-06-01T06:17:19.536Z,24.34
2017-06-01T06:19:21.777Z,23.95
2017-06-01T06:21:23.316Z,25.09
2017-06-01T06:23:24.841Z,26.81
2017-06-01T06:25:26.555Z,26.98
2017-06-01T06:27:28.700Z,26.83
2017-06-01T06:29:30.162Z,25.21
2017-06-01T06:31:31.666Z,22.91
2017-06-01T06:33:33.216Z,21.94
2017-06-01T06:35:34.781Z,22.53
2017-06-01T06:37:36.275Z,21.48
2017-06-01T06:39:37.793Z,20.22
2017-06-01T06:41:40.258Z,19.94
2017-06-01T06:43:42.076Z,19.17
2017-06-01T06:45:44.511Z,18.99
2017-06-01T06:47:46.047Z,18.50
2017-06-01T06:49:48.490Z,18.02
2017-06-01T06:51:50.821Z,17.24
2017-06-01T06:53:52.685Z,17.15
2017-06-01T06:55:55.042Z,16.97
2017-06-01T06:57:57.400Z,16.28
2017-06-01T06:59:59.226Z,15.89
2017-06-01T07:02:01.738Z,15.89
2017-06-01T07:04:03.301Z,15.60
2017-06-01T07:06:05.725Z,14.72
2017-06-01T07:08:07.168Z,15.41
2017-06-01T07:10:08.673Z,15.80
2017-06-01T07:12:10.168Z,15.30
2017-06-01T07:14:11.680Z,16.56
2017-06-01T07:16:13.203Z,16.75
2017-06-01T07:18:14.712Z,16.93
2017-06-01T07:20:16.931Z,18.95
2017-06-01T07:22:18.455Z,20.89
2017-06-01T07:24:21.006Z,21.25
2017-06-01T07:26:22.585Z,23.07
2017-06-01T07:28:24.192Z,26.14
2017-06-01T07:30:26.405Z,26.59
2017-06-01T07:32:27.860Z,28.77
2017-06-01T07:34:29.399Z,31.73
2017-06-01T07:36:30.906Z,32.86
2017-06-01T07:38:32.712Z,35.06
2017-06-01T07:40:34.239Z,36.21
2017-06-01T07:42:35.768Z,38.31
2017-06-01T07:44:37.322Z,39.26
2017-06-01T07:46:38.836Z,38.08
2017-06-01T07:48:40.404Z,40.37
2017-06-01T07:50:41.867Z,41.05
2017-06-01T07:52:43.306Z,40.86
2017-06-01T07:54:45.272Z,39.68
2017-06-01T07:56:47.454Z,41.51
2017-06-01T07:58:49.408Z,41.68
2017-06-01T08:00:51.591Z,42.46
2017-06-01T08:02:53.125Z,43.32
2017-06-01T08:04:54.603Z,43.80
2017-06-01T08:06:56.108Z,42.36
2017-06-01T08:08:57.597Z,41.78
2017-06-01T08:10:59.115Z,42.55
2017-06-01T08:13:00.641Z,42.55
2017-06-01T08:15:02.888Z,43.99
2017-06-01T08:17:04.848Z,43.99
2017-06-01T08:19:06.813Z,44.19
2017-06-01T08:21:08.753Z,43.41
2017-06-01T08:23:10.849Z,43.15
2017-06-01T08:25:12.323Z,41.99
2017-06-01T08:27:14.475Z,40.26
2017-06-01T08:29:15.980Z,42.09
2017-06-01T08:31:17.458Z,42.11
2017-06-01T08:33:18.968Z,42.21
2017-06-01T08:35:20.584Z,44.49
2017-06-01T08:37:22.651Z,42.69
2017-06-01T08:39:24.600Z,40.66
2017-06-01T08:41:26.532Z,41.75
2017-06-01T08:43:28.381Z,41.92
2017-06-01T08:45:30.360Z,41.07
2017-06-01T08:47:31.844Z,41.07
2017-06-01T08:49:33.441Z,40.01
2017-06-01T08:51:34.930Z,41.19
2017-06-01T08:53:36.459Z,40.61
2017-06-01T08:55:37.945Z,37.62
2017-06-01T08:57:39.436Z,40.42
2017-06-01T08:59:40.935Z,38.79
2017-06-01T09:01:42.812Z,38.79
2017-06-01T09:03:44.329Z,39.57
2017-06-01T09:05:45.862Z,38.81
2017-06-01T09:07:47.396Z,38.43
2017-06-01T09:09:49.026Z,36.50
2017-06-01T09:11:51.318Z,38.74
2017-06-01T09:13:52.831Z,37.48
2017-06-01T09:15:54.847Z,37.96
2017-06-01T09:17:56.321Z,36.22
2017-06-01T09:19:57.808Z,36.53
2017-06-01T09:21:59.299Z,38.28
2017-06-01T09:24:00.930Z,34.21
2017-06-01T09:26:02.605Z,34.41
2017-06-01T09:28:04.588Z,36.53
2017-06-01T09:30:06.557Z,34.99
2017-06-01T09:32:08.056Z,36.15
2017-06-01T09:34:09.607Z,34.13
2017-06-01T09:36:11.216Z,34.33
2017-06-01T09:38:13.027Z,32.59
2017-06-01T09:40:14.945Z,33.94
2017-06-01T09:42:16.475Z,34.13
2017-06-01T09:44:19.373Z,33.25
2017-06-01T09:46:20.922Z,32.67
2017-06-01T09:48:22.479Z,31.91
2017-06-01T09:50:24.082Z,34.91
2017-06-01T09:52:26.011Z,33.55
2017-06-01T09:54:27.571Z,33.26
2017-06-01T09:56:29.052Z,35.80
2017-06-01T09:58:30.577Z,35.41
2017-06-01T10:00:32.083Z,33.84
2017-06-01T10:02:33.571Z,34.05
2017-06-01T10:04:35.055Z,34.92
2017-06-01T10:06:36.608Z,34.05
2017-06-01T10:08:38.197Z,34.44
2017-06-01T10:10:39.773Z,34.44
2017-06-01T10:12:41.878Z,35.12
2017-06-01T10:14:43.406Z,34.83
2017-06-01T10:16:45.418Z,32.60
2017-06-01T10:18:46.930Z,35.31
2017-06-01T10:20:48.437Z,33.47
2017-06-01T10:22:50.106Z,34.44
2017-06-01T10:24:51.607Z,34.34
2017-06-01T10:26:53.090Z,33.59
2017-06-01T10:28:54.600Z,32.82
2017-06-01T10:30:56.824Z,33.12
2017-06-01T10:32:58.356Z,33.14
2017-06-01T10:35:00.046Z,29.94
2017-06-01T10:37:02.168Z,30.23
2017-06-01T10:39:04.185Z,32.07
2017-06-01T10:41:05.672Z,30.71
2017-06-01T10:43:07.224Z,31.49
2017-06-01T10:45:08.707Z,31.79
2017-06-01T10:47:10.343Z,31.79
2017-06-01T10:49:11.906Z,31.41
2017-06-01T10:51:13.457Z,32.09
2017-06-01T10:53:15.624Z,29.85
2017-06-01T10:55:17.448Z,30.55
2017-06-01T10:57:18.983Z,29.19
2017-06-01T10:59:21.386Z,29.38
2017-06-01T11:01:23.238Z,30.45
2017-06-01T11:03:25.617Z,28.63
2017-06-01T11:05:27.811Z,31.15
2017-06-01T11:07:30.088Z,30.08
2017-06-01T11:09:32.349Z,29.30
2017-06-01T11:11:34.249Z,29.12
2017-06-01T11:13:36.179Z,28.43
2017-06-01T11:15:38.501Z,28.72
2017-06-01T11:17:40.818Z,29.01
2017-06-01T11:19:43.263Z,28.74
2017-06-01T11:21:45.600Z,29.51
2017-06-01T11:23:47.949Z,29.79
2017-06-01T11:25:49.766Z,29.80
2017-06-01T11:27:51.782Z,29.11
2017-06-01T11:29:53.309Z,27.56
2017-06-01T11:31:54.837Z,28.91
2017-06-01T11:33:56.333Z,27.45
2017-06-01T11:35:57.955Z,28.90
2017-06-01T11:37:59.600Z,29.68
2017-06-01T11:40:01.244Z,30.26
2017-06-01T11:42:02.880Z,29.48
2017-06-01T11:44:04.541Z,29.98
2017-06-01T11:46:06.863Z,26.59
2017-06-01T11:48:08.354Z,29.50
2017-06-01T11:50:09.921Z,30.57
2017-06-01T11:52:11.525Z,29.69
2017-06-01T11:54:13.028Z,28.91
2017-06-01T11:56:14.534Z,30.48
2017-06-01T11:58:16.459Z,30.29
2017-06-01T12:00:18.040Z,28.04
2017-06-01T12:02:19.531Z,28.44
2017-06-01T12:04:21.019Z,28.33
2017-06-01T12:06:22.499Z,27.93
2017-06-01T12:08:23.987Z,29.38
2017-06-01T12:10:25.700Z,31.31
2017-06-01T12:12:27.176Z,32.78
2017-06-01T12:14:29.415Z,32.10
2017-06-01T12:16:31.314Z,32.12
2017-06-01T12:18:32.812Z,31.35
2017-06-01T12:20:35.128Z,30.48
2017-06-01T12:22:36.666Z,30.58
2017-06-01T12:24:38.156Z,30.09
2017-06-01T12:26:39.698Z,30.97
2017-06-01T12:28:41.287Z,29.51
2017-06-01T12:30:42.842Z,29.14
2017-06-01T12:32:44.353Z,30.40
2017-06-01T12:34:45.843Z,29.41
2017-06-01T12:36:48.130Z,29.90
2017-06-01T12:38:50.089Z,31.16
2017-06-01T12:40:52.390Z,30.59
2017-06-01T12:42:54.234Z,30.30
2017-06-01T12:44:55.762Z,27.87
2017-06-01T12:46:57.226Z,28.26
2017-06-01T12:48:58.966Z,30.01
2017-06-01T12:51:00.681Z,29.12
2017-06-01T12:53:02.608Z,27.67
2017-06-01T12:55:04.142Z,29.12
2017-06-01T12:57:05.663Z,30.59
2017-06-01T12:59:07.204Z,29.82
2017-06-01T13:01:08.740Z,27.39
2017-06-01T13:03:10.296Z,30.71
2017-06-01T13:05:11.829Z,30.22
2017-06-01T13:07:13.772Z,26.82
2017-06-01T13:09:15.947Z,26.53
2017-06-01T13:11:18.130Z,27.40
2017-06-01T13:13:20.046Z,27.59
2017-06-01T13:15:21.874Z,27.58
2017-06-01T13:17:23.960Z,27.96
2017-06-01T13:19:25.515Z,29.01
2017-06-01T13:21:27.032Z,32.41
2017-06-01T13:23:28.604Z,29.69
2017-06-01T13:25:30.246Z,28.91
2017-06-01T13:27:31.785Z,31.34
2017-06-01T13:29:33.268Z,29.30
2017-06-01T13:31:34.751Z,28.63
2017-06-01T13:33:36.983Z,27.46
2017-06-01T13:35:38.435Z,28.43
2017-06-01T13:37:39.935Z,28.43
2017-06-01T13:39:41.555Z,27.36
2017-06-01T13:41:43.026Z,26.78
2017-06-01T13:43:44.559Z,26.89
2017-06-01T13:45:46.079Z,29.02
2017-06-01T13:47:48.192Z,27.84
2017-06-01T13:49:50.209Z,27.57
2017-06-01T13:51:52.496Z,26.01
2017-06-01T13:53:54.759Z,26.60
2017-06-01T13:55:56.311Z,25.92
2017-06-01T13:57:57.832Z,25.92
2017-06-01T13:59:59.353Z,25.82
2017-06-01T14:02:00.831Z,26.01
2017-06-01T14:04:02.883Z,26.89
2017-06-01T14:06:04.481Z,28.05
2017-06-01T14:08:06.288Z,26.20
2017-06-01T14:10:08.478Z,25.52
2017-06-01T14:12:10.407Z,28.43
2017-06-01T14:14:11.980Z,27.75
2017-06-01T14:16:13.449Z,28.43
2017-06-01T14:18:14.988Z,27.07
2017-06-01T14:20:17.189Z,26.49
2017-06-01T14:22:18.640Z,29.40
2017-06-01T14:24:20.143Z,27.76
2017-06-01T14:26:21.795Z,25.92
2017-06-01T14:28:23.313Z,28.17
2017-06-01T14:30:24.845Z,26.70
2017-06-01T14:32:26.457Z,28.33
2017-06-01T14:34:28.019Z,27.56
2017-06-01T14:36:29.589Z,27.76
2017-06-01T14:38:31.764Z,28.25
2017-06-01T14:40:33.850Z,27.76
2017-06-01T14:42:35.347Z,26.79
2017-06-01T14:44:36.880Z,26.60
2017-06-01T14:46:38.355Z,27.48
2017-06-01T14:48:40.527Z,27.50
2017-06-01T14:50:42.062Z,27.79
2017-06-01T14:52:43.547Z,27.50
2017-06-01T14:54:45.660Z,25.26
2017-06-01T14:56:48.721Z,27.50
2017-06-01T14:58:50.168Z,26.53
2017-06-01T15:00:51.650Z,26.33
2017-06-01T15:02:53.783Z,25.07
2017-06-01T15:04:55.644Z,26.04
2017-06-01T15:06:57.119Z,25.45
2017-06-01T15:08:58.623Z,24.96
2017-06-01T15:11:00.115Z,25.15
2017-06-01T15:13:01.635Z,26.12
2017-06-01T15:15:03.113Z,25.34
2017-06-01T15:17:04.702Z,26.79
2017-06-01T15:19:06.211Z,26.81
2017-06-01T15:21:08.116Z,26.90
2017-06-01T15:23:09.597Z,24.85
2017-06-01T15:25:11.677Z,25.84
2017-06-01T15:27:13.947Z,26.22
2017-06-01T15:29:15.398Z,26.71
2017-06-01T15:31:16.890Z,27.10
2017-06-01T15:33:18.416Z,24.96
2017-06-01T15:35:20.024Z,25.64
2017-06-01T15:37:21.548Z,24.95
2017-06-01T15:39:23.044Z,24.37
2017-06-01T15:41:24.546Z,24.37
2017-06-01T15:43:26.621Z,25.82
2017-06-01T15:45:28.633Z,26.21
2017-06-01T15:47:30.959Z,26.11
2017-06-01T15:49:33.189Z,25.63
2017-06-01T15:51:34.726Z,26.01
2017-06-01T15:53:36.221Z,24.95
2017-06-01T15:55:37.720Z,24.95
2017-06-01T15:57:39.277Z,26.29
2017-06-01T15:59:41.561Z,27.46
2017-06-01T16:01:43.136Z,26.70
2017-06-01T16:03:45.410Z,26.31
2017-06-01T16:05:46.894Z,26.40
2017-06-01T16:07:48.391Z,25.63
2017-06-01T16:09:49.905Z,24.95
2017-06-01T16:11:51.505Z,25.73
2017-06-01T16:13:53.168Z,25.81
2017-06-01T16:15:55.134Z,25.90
2017-06-01T16:17:56.606Z,26.00
2017-06-01T16:19:58.731Z,26.49
2017-06-01T16:22:00.248Z,27.26
2017-06-01T16:24:02.219Z,27.36
2017-06-01T16:26:03.716Z,25.42
2017-06-01T16:28:05.250Z,25.81
2017-06-01T16:30:06.698Z,25.81
2017-06-01T16:32:08.219Z,26.68
2017-06-01T16:34:09.828Z,25.82
2017-06-01T16:36:11.316Z,25.92
2017-06-01T16:38:12.811Z,25.82
2017-06-01T16:40:14.295Z,26.60
2017-06-01T16:42:15.774Z,26.59
2017-06-01T16:44:17.709Z,26.20
2017-06-01T16:46:19.264Z,27.26
2017-06-01T16:48:20.968Z,27.64
2017-06-01T16:50:22.455Z,27.93
2017-06-01T16:52:24.011Z,26.86
2017-06-01T16:54:25.460Z,28.69
2017-06-01T16:56:26.898Z,26.46
2017-06-01T16:58:28.345Z,27.53
2017-06-01T17:00:29.789Z,27.04
2017-06-01T17:02:31.232Z,27.62
2017-06-01T17:04:33.479Z,28.58
2017-06-01T17:06:35.791Z,27.71
2017-06-01T17:08:37.731Z,27.53
2017-06-01T17:10:39.124Z,28.89
2017-06-01T17:12:40.603Z,28.40
2017-06-01T17:14:42.089Z,28.69
2017-06-01T17:16:43.585Z,28.69
2017-06-01T17:18:45.086Z,28.50
2017-06-01T17:20:47.334Z,28.22
2017-06-01T17:22:49.100Z,28.22
2017-06-01T17:24:50.557Z,28.51
2017-06-01T17:26:52.117Z,28.03
2017-06-01T17:28:53.635Z,28.32
2017-06-01T17:30:55.966Z,29.00
2017-06-01T17:32:58.092Z,29.87
2017-06-01T17:34:59.716Z,29.85
2017-06-01T17:37:01.189Z,30.05
2017-06-01T17:39:02.680Z,29.76
2017-06-01T17:41:04.266Z,29.76
2017-06-01T17:43:06.140Z,30.73
2017-06-01T17:45:07.666Z,29.95
2017-06-01T17:47:09.139Z,30.63
2017-06-01T17:49:10.624Z,30.73
2017-06-01T17:51:12.370Z,30.54
2017-06-01T17:53:14.325Z,31.97
2017-06-01T17:55:16.545Z,31.29
2017-06-01T17:57:18.069Z,31.87
2017-06-01T17:59:19.548Z,30.92
2017-06-01T18:01:21.451Z,32.07
2017-06-01T18:03:23.484Z,32.07
2017-06-01T18:05:25.574Z,31.78
2017-06-01T18:07:27.902Z,30.62
2017-06-01T18:09:29.427Z,31.97
2017-06-01T18:11:30.909Z,32.07
2017-06-01T18:13:32.464Z,30.23
2017-06-01T18:15:33.904Z,31.01
2017-06-01T18:17:35.492Z,31.28
2017-06-01T18:19:37.758Z,30.89
2017-06-01T18:21:39.637Z,30.89
2017-06-01T18:23:41.584Z,31.28
2017-06-01T18:25:43.547Z,30.60
2017-06-01T18:27:45.396Z,31.28
2017-06-01T18:29:47.337Z,31.96
2017-06-01T18:31:49.237Z,31.47
2017-06-01T18:33:50.722Z,31.67
2017-06-01T18:35:52.226Z,31.94
2017-06-01T18:37:54.458Z,32.62
2017-06-01T18:39:56.362Z,32.04
2017-06-01T18:41:57.825Z,32.04
2017-06-01T18:43:59.316Z,32.33
2017-06-01T18:46:00.807Z,33.78
2017-06-01T18:48:02.375Z,33.97
2017-06-01T18:50:03.943Z,35.13
2017-06-01T18:52:05.430Z,36.10
2017-06-01T18:54:06.910Z,36.08
2017-06-01T18:56:08.388Z,36.47
2017-06-01T18:58:09.888Z,37.15
2017-06-01T19:00:12.090Z,37.63
2017-06-01T19:02:14.024Z,37.42
2017-06-01T19:04:16.143Z,37.42
2017-06-01T19:06:18.329Z,37.71
2017-06-01T19:08:19.813Z,37.62
2017-06-01T19:10:21.292Z,37.40
2017-06-01T19:12:22.805Z,37.88
2017-06-01T19:14:24.349Z,36.72
2017-06-01T19:16:25.889Z,36.44
2017-06-01T19:18:27.522Z,36.53
2017-06-01T19:20:29.029Z,36.44
2017-06-01T19:22:30.761Z,36.13
2017-06-01T19:24:32.635Z,36.13
2017-06-01T19:26:34.091Z,35.64
2017-06-01T19:28:35.675Z,34.48
2017-06-01T19:30:37.176Z,33.52
2017-06-01T19:32:39.377Z,34.10
2017-06-01T19:34:41.458Z,33.81
2017-06-01T19:36:43.638Z,33.80
2017-06-01T19:38:45.564Z,34.95
2017-06-01T19:40:47.567Z,35.92
2017-06-01T19:42:49.498Z,36.59
2017-06-01T19:44:51.613Z,36.50
2017-06-01T19:46:53.157Z,36.87
2017-06-01T19:48:54.737Z,37.17
2017-06-01T19:50:56.285Z,37.06
2017-06-01T19:52:57.834Z,37.63
2017-06-01T19:54:59.394Z,37.15
2017-06-01T19:57:01.306Z,36.96
2017-06-01T19:59:03.365Z,37.45
2017-06-01T20:01:05.310Z,37.43
2017-06-01T20:03:06.860Z,37.52
2017-06-01T20:05:08.631Z,35.80
2017-06-01T20:07:10.697Z,36.07
2017-06-01T20:09:12.237Z,36.36
2017-06-01T20:11:13.695Z,35.88
2017-06-01T20:13:15.155Z,36.55
2017-06-01T20:15:16.738Z,37.62
2017-06-01T20:17:18.253Z,37.81
2017-06-01T20:19:19.811Z,37.31
2017-06-01T20:21:21.815Z,37.70
2017-06-01T20:23:23.335Z,37.31
2017-06-01T20:25:24.872Z,37.50
2017-06-01T20:27:26.755Z,37.89
2017-06-01T20:29:28.237Z,38.56
2017-06-01T20:31:30.216Z,38.56
2017-06-01T20:33:32.186Z,38.46
2017-06-01T20:35:34.175Z,38.08
2017-06-01T20:37:35.942Z,38.46
2017-06-01T20:39:37.878Z,38.83
2017-06-01T20:41:39.380Z,39.03
2017-06-01T20:43:40.886Z,39.79
2017-06-01T20:45:42.562Z,38.74
2017-06-01T20:47:44.052Z,38.64
2017-06-01T20:49:45.706Z,38.35
2017-06-01T20:51:47.157Z,38.74
2017-06-01T20:53:48.638Z,39.03
2017-06-01T20:55:50.058Z,39.51
2017-06-01T20:57:51.491Z,40.28
2017-06-01T20:59:53.419Z,39.59
2017-06-01T21:01:55.329Z,39.31
2017-06-01T21:03:56.901Z,39.78
2017-06-01T21:05:58.476Z,40.45
2017-06-01T21:07:59.971Z,41.03
2017-06-01T21:10:01.980Z,41.71
2017-06-01T21:12:03.964Z,41.99
2017-06-01T21:14:05.513Z,41.32
2017-06-01T21:16:07.014Z,41.03
2017-06-01T21:18:08.484Z,41.80
2017-06-01T21:20:10.433Z,41.59
2017-06-01T21:22:11.927Z,41.88
2017-06-01T21:24:13.381Z,41.88
2017-06-01T21:26:14.861Z,41.88
2017-06-01T21:28:16.952Z,41.59
2017-06-01T21:30:18.941Z,42.74
2017-06-01T21:32:20.998Z,42.07
2017-06-01T21:34:23.019Z,42.55
2017-06-01T21:36:24.489Z,43.51
2017-06-01T21:38:26.111Z,44.19
2017-06-01T21:40:27.980Z,44.57
2017-06-01T21:42:30.065Z,44.09
2017-06-01T21:44:31.498Z,43.40
2017-06-01T21:46:33.702Z,43.49
2017-06-01T21:48:35.092Z,43.49
2017-06-01T21:50:36.933Z,43.78
2017-06-01T21:52:38.410Z,43.40
2017-06-01T21:54:40.011Z,43.68
2017-06-01T21:56:41.435Z,43.20
2017-06-01T21:58:42.944Z,44.35
2017-06-01T22:00:45.033Z,45.22
2017-06-01T22:02:47.195Z,46.16
2017-06-01T22:04:49.188Z,46.64
2017-06-01T22:06:51.292Z,47.41
2017-06-01T22:08:52.743Z,47.70
2017-06-01T22:10:54.803Z,48.38
2017-06-01T22:12:56.858Z,47.99
2017-06-01T22:14:58.960Z,47.80
2017-06-01T22:17:00.418Z,48.18
2017-06-01T22:19:02.002Z,47.77
2017-06-01T22:21:04.088Z,48.28
2017-06-01T22:23:05.620Z,48.35
2017-06-01T22:25:07.105Z,48.25
2017-06-01T22:27:09.025Z,47.87
2017-06-01T22:29:11.223Z,48.25
2017-06-01T22:31:12.690Z,48.16
2017-06-01T22:33:14.391Z,49.12
2017-06-01T22:35:16.399Z,48.93
2017-06-01T22:37:18.318Z,48.16
2017-06-01T22:39:20.371Z,47.58
2017-06-01T22:41:21.876Z,47.87
2017-06-01T22:43:23.821Z,46.14
2017-06-01T22:45:25.313Z,47.68
2017-06-01T22:47:26.807Z,48.64
2017-06-01T22:49:28.248Z,48.71
2017-06-01T22:51:29.813Z,49.29
2017-06-01T22:53:31.253Z,49.87
2017-06-01T22:55:33.190Z,49.29
2017-06-01T22:57:35.224Z,49.00
2017-06-01T22:59:36.566Z,49.38
2017-06-01T23:01:38.584Z,49.77
2017-06-01T23:03:40.047Z,49.96
2017-06-01T23:05:42.112Z,49.00
2017-06-01T23:07:43.546Z,49.29
2017-06-01T23:09:45.552Z,48.61
2017-06-01T23:11:47.107Z,48.52
2017-06-01T23:13:48.961Z,48.23
2017-06-01T23:15:50.437Z,48.97
2017-06-01T23:17:52.443Z,48.21
2017-06-01T23:19:54.458Z,48.97
2017-06-01T23:21:56.548Z,49.17
2017-06-01T23:23:58.575Z,48.88
2017-06-01T23:26:00.094Z,48.40
2017-06-01T23:28:01.571Z,48.49
2017-06-01T23:30:03.543Z,48.40
2017-06-01T23:32:05.536Z,48.59
2017-06-01T23:34:07.455Z,48.69
2017-06-01T23:36:08.939Z,48.97
2017-06-01T23:38:10.411Z,50.70
2017-06-01T23:40:12.029Z,50.78
2017-06-01T23:42:13.496Z,52.02
2017-06-01T23:44:14.948Z,52.22
2017-06-01T23:46:17.002Z,53.17
2017-06-01T23:48:18.984Z,53.08
2017-06-01T23:50:20.587Z,52.98
2017-06-01T23:52:22.038Z,53.27
2017-06-01T23:54:23.890Z,53.36
2017-06-01T23:56:25.985Z,53.46
2017-06-01T23:58:28.130Z,53.36
